KHFD

Hartford-Brainard Airport

Hartford, Connecticut, USA
METAR KHFD 182253Z 02005KT 10SM SCT070 BKN090 23/22 A2980 RMK AO2 SLP090 T02330217
Observed Flight Rules
Aug-18 @ 22:53 UTC (54 minutes ago) Visual Flight Rules
Wind Visibility Clouds
20° at 5 knots 10 miles
  • Scattered at 7,000' AGL
  • Broken at 9,000' AGL
Temperatures Readings
Current 23°C / 73°F
Dewpoint 22°C / 72°F
Humidity 94%
Altimeter 29.8" Hg
Pressure 1009 hPa
Elevation 4
METAR KHFD 182253Z 02005KT 10SM SCT070 BKN090 23/22 A2980 RMK AO2 SLP090 T02330217
Observed Flight Rules
Aug-18 @ 22:53 UTC
(54 minutes ago)
VFR
Wind Visibility
20° at 5 knots 10 miles
Clouds
  • Scattered at 7,000' AGL
  • Broken at 9,000' AGL
Temperature Dewpoint
23°C / 73°F 22°C / 72°F
Humidity Altimeter Pressure
94% 29.8" Hg 1009 hPa